Flight Track Log - Related Links

Times and Time Zones

All times are in EDT time to prevent confusion due to time zone crossing. See the FLG3811 flight status page for this flight to view local times or setup timezone preferences in your user account.

Time Position Orientation Groundspeed Altitude Reporting Facility
EDT Latitude Longitude Course Direction KTS km/h meters Rate Location/Type
Tue 22:05:05 42.2050 -83.3533 90° East 158 293 366  Level FAA TRACON SMA TRACON (SMA)
Tue 22:05:25 42.1933 -83.3600 203° Southwest 154 285 610 640 Climbing FAA TRACON SMA TRACON (SMA)
Tue 22:05:45 42.1769 -83.3561 170° South 177 328 792 686 Climbing FAA TRACON SMA TRACON (SMA)
Tue 22:06:05 42.1617 -83.3522 169° South 181 335 1,067 823 Climbing FAA TRACON SMA TRACON (SMA)
Tue 22:06:25 42.1433 -83.3472 169° South 185 343 1,341 503 Climbing FAA TRACON SMA TRACON (SMA)
Tue 22:06:45 42.1250 -83.3431 170° South 221 409 1,402 366 Climbing FAA TRACON SMA TRACON (SMA)
Tue 22:07:05 42.1053 -83.3381 169° South 234 433 1,585 714 Climbing FAA TRACON SMA TRACON (SMA)
Tue 22:07:26 42.0858 -83.3122 135° Southeast 267 494 1,890 777 Climbing FAA TRACON SMA TRACON (SMA)
Tue 22:07:45 42.0814 -83.2803 101° East 276 512 2,103 657 Climbing FAA TRACON SMA TRACON (SMA)
Tue 22:08:00 42.3193 -82.7240 82° East  Level FlightAware Approximate
Tue 22:08:05 42.0900 -83.2467 71° East 293 542 2,316  Level FAA TRACON SMA TRACON (SMA)
Tue 22:08:25 42.1039 -83.2058 65° Northeast 295 546 2,591 732 Climbing FAA TRACON SMA TRACON (SMA)
Tue 22:08:45 42.1161 -83.1722 64° Northeast 319 591 2,804 669 Climbing FAA TRACON SMA TRACON (SMA)
Tue 22:09:00 42.3381 -82.5644 71° East  Level FlightAware Approximate
Tue 22:09:06 42.1306 -83.1303 65° Northeast 322 597 3,048  Level FAA TRACON SMA TRACON (SMA)
Tue 22:09:25 42.1431 -83.0961 64° Northeast 328 607 3,170 187 Climbing FAA TRACON SMA TRACON (SMA)
Tue 22:09:45 42.1558 -83.0589 65° Northeast 359 665 3,170 229 Level FAA TRACON SMA TRACON (SMA)
Tue 22:10:00 42.3667 -82.4120 90° East  Level FlightAware Approximate
Tue 22:10:05 42.1728 -83.0097 65° Northeast 362 671 3,322  Level FAA TRACON SMA TRACON (SMA)
Tue 22:10:25 42.1869 -82.9708 64° Northeast 377 698 3,414 401 Climbing FAA TRACON SMA TRACON (SMA)
Tue 22:10:46 42.2017 -82.9289 65° Northeast 382 708 3,597 549 Climbing FAA TRACON SMA TRACON (SMA)
Tue 22:11:05 42.2189 -82.8803 64° Northeast 385 713 3,780 516 Climbing FAA TRACON SMA TRACON (SMA)
Tue 22:11:25 42.2331 -82.8400 65° Northeast 387 716 3,932 274 Climbing FAA TRACON SMA TRACON (SMA)
Tue 22:11:45 42.2472 -82.7994 65° Northeast 388 719 3,962 91 Climbing FAA TRACON SMA TRACON (SMA)
Tue 22:12:05 42.2619 -82.7575 65° Northeast 396 734 3,993 401 Climbing FAA TRACON SMA TRACON (SMA)
Tue 22:12:26 42.2808 -82.7047 64° Northeast 404 748 4,237 503 Climbing FAA TRACON SMA TRACON (SMA)
Tue 22:12:45 42.2953 -82.6628 65° Northeast 402 745 4,328 366 Climbing FAA TRACON SMA TRACON (SMA)
Tue 22:13:06 42.3136 -82.6106 65° Northeast 402 745 4,481 411 Climbing FAA TRACON SMA TRACON (SMA)
Tue 22:13:25 42.3281 -82.5683 65° Northeast 403 747 4,602 375 Climbing FAA TRACON SMA TRACON (SMA)
Tue 22:13:45 42.3428 -82.5258 65° Northeast 404 748 4,724 357 Climbing FAA TRACON SMA TRACON (SMA)
Tue 22:14:06 42.3611 -82.4725 65° Northeast 407 753 4,846 320 Climbing FAA TRACON SMA TRACON (SMA)
Tue 22:14:25 42.3672 -82.4253 80° East 415 769 4,938 274 Climbing FAA TRACON SMA TRACON (SMA)
Tue 22:14:46 42.3656 -82.3781 93° East 410 760 5,029 320 Climbing FAA TRACON SMA TRACON (SMA)
Tue 22:15:05 42.3639 -82.3186 92° East 411 761 5,151 375 Climbing FAA TRACON SMA TRACON (SMA)
Tue 22:15:25 42.3617 -82.2717 94° East 410 760 5,273 357 Climbing FAA TRACON SMA TRACON (SMA)
Tue 22:15:46 42.3594 -82.2244 94° East 410 760 5,395 229 Climbing FAA TRACON SMA TRACON (SMA)
Tue 22:16:05 42.3583 -82.1869 92° East 409 758 5,425 46 Climbing FAA TRACON SMA TRACON (SMA)
Tue 22:16:26 42.3583 -82.1869 315° West 409 758 5,425 284 Level FAA TRACON SMA TRACON (SMA)
Tue 22:16:50 42.3525 -82.0694 94° East 406 752 5,639 261 Climbing Cleveland Center
Tue 22:17:50 42.3442 -81.9092 94° East 420 777 5,791 152 Climbing Cleveland Center
Tue 22:18:50 42.3356 -81.7292 94° East 429 795 5,944 274 Climbing Cleveland Center
Tue 22:19:50 42.3267 -81.5633 94° East 434 803 6,340 320 Climbing Cleveland Center
Tue 22:20:50 42.3197 -81.3975 93° East 441 816 6,584 244 Climbing Cleveland Center
Tue 22:21:50 42.3125 -81.2233 93° East 454 840 6,828 290 Climbing Cleveland Center
Tue 22:22:50 42.3050 -81.0519 93° East 459 850 7,163 320 Climbing Cleveland Center
Tue 22:23:50 42.2953 -80.8808 94° East 459 850 7,468 305 Climbing Cleveland Center
Tue 22:24:50 42.2850 -80.7067 95° East 459 850 7,772 290 Climbing Cleveland Center
Tue 22:25:50 42.2767 -80.5550 94° East 459 850 8,047 290 Climbing Cleveland Center
Tue 22:26:50 42.2744 -80.3839 91° East 459 850 8,352 290 Climbing Cleveland Center
Tue 22:27:50 42.2867 -80.2128 84° East 459 850 8,626 213 Climbing Cleveland Center
Tue 22:28:50 42.3028 -80.0469 82° East 459 850 8,778 152 Climbing Cleveland Center
Tue 22:29:50 42.3142 -79.8728 85° East 459 850 8,931 152 Climbing Cleveland Center
Tue 22:30:50 42.3256 -79.6986 85° East 464 859 9,083 152 Climbing Cleveland Center
Tue 22:31:50 42.3386 -79.5242 84° East 464 859 9,235 152 Climbing Cleveland Center
Tue 22:32:50 42.3514 -79.3469 84° East 464 859 9,388 107 Climbing Cleveland Center
Tue 22:33:50 42.3619 -79.1697 85° East 464 859 9,449 30 Climbing Cleveland Center
Tue 22:34:50 42.3742 -78.9925 85° East 464 859 9,449  Level Cleveland Center
Tue 22:35:50 42.3881 -78.7897 85° East 474 877 9,449  Level Cleveland Center
Tue 22:36:50 42.3994 -78.6064 85° East 484 896 9,449  Level Cleveland Center
Tue 22:37:50 42.4108 -78.4233 85° East 484 896 9,449  Level Cleveland Center
Tue 22:38:50 42.4197 -78.2431 86° East 484 896 9,449  Level Cleveland Center
Tue 22:39:50 42.4306 -78.0569 85° East 484 896 9,449  Level Cleveland Center
Tue 22:40:50 42.4408 -77.8708 86° East 484 896 9,449  Level Cleveland Center
Tue 22:41:50 42.4508 -77.6875 86° East 484 896 9,449  Level Cleveland Center
Tue 22:44:16 42.4733 -77.2572 86° East 495 917 9,449  Level Boston Center
Tue 22:45:16 42.4831 -77.0692 86° East 495 917 9,449  Level Boston Center
Tue 22:46:16 42.4928 -76.8842 86° East 495 917 9,449  Level Boston Center
Tue 22:47:16 42.5000 -76.6931 87° East 495 917 9,449  Level Boston Center
Tue 22:48:16 42.5067 -76.5075 87° East 495 917 9,449  Level Boston Center
Tue 22:49:16 42.5111 -76.3217 88° East 495 917 9,449  Level Boston Center
Tue 22:50:16 42.4422 -76.1403 117° Southeast 469 869 9,449  Level Boston Center
Tue 22:51:16 42.3681 -75.9783 122° Southeast 483 895 9,449  Level Boston Center
Tue 22:52:16 42.2939 -75.8169 122° Southeast 495 917 9,449  Level Boston Center
Tue 22:53:16 42.2272 -75.6703 122° Southeast 505 935 9,449  Level Boston Center
Tue 22:54:16 42.1547 -75.5069 121° Southeast 505 935 9,449  Level Boston Center
Tue 22:55:16 42.0817 -75.3467 122° Southeast 511 946 9,449  Level Boston Center
Tue 22:56:15 42.0728 -75.2008 95° East 485 898 9,449  Level Boston Center
Tue 22:57:16 42.0969 -74.9722 82° East 462 856 9,449 -15 Level Boston Center
Tue 22:58:16 42.1156 -74.7911 82° East 470 871 9,418 -91 Descending Boston Center
Tue 22:59:16 42.1311 -74.6350 82° East 478 885 9,266 -274 Descending Boston Center
Tue 23:00:16 42.1467 -74.4675 83° East 464 859 8,870 -213 Descending Boston Center
Tue 23:01:16 42.1664 -74.2889 81° East 442 819 8,839 -30 Descending Boston Center
Tue 23:02:16 42.1836 -74.1267 82° East 436 808 8,809 -244 Descending Boston Center
Tue 23:03:16 42.1983 -73.9647 83° East 436 808 8,352 -442 Descending Boston Center
Tue 23:04:16 42.2108 -73.8081 84° East 431 798 7,925 -411 Descending Boston Center
Tue 23:05:16 42.2250 -73.6597 83° East 435 806 7,529 -320 Descending Boston Center
Tue 23:06:16 42.2411 -73.5058 82° East 429 795 7,285 -305 Descending Boston Center
Tue 23:07:16 42.2528 -73.3544 84° East 412 763 6,919 -442 Descending Boston Center
Tue 23:08:16 42.2644 -73.1947 84° East 404 748 6,401 -533 Descending Boston Center
Tue 23:09:16 42.2153 -73.0597 116° Southeast 375 695 5,852 -305 Descending Boston Center
Tue 23:10:16 42.1367 -72.9581 136° Southeast 380 703 5,791 -61 Descending Boston Center
Tue 23:11:16 42.0619 -72.8567 135° Southeast 380 703 5,730 -183 Descending Boston Center
Tue 23:12:16 41.9914 -72.7614 135° Southeast 386 715 5,425 -131 Descending Boston Center
Tue 23:13:08 41.9250 -72.6578 131° Southeast 396 734 5,486 -83 Climbing Boston Center
Tue 23:13:44 41.8792 -72.5794 128° Southeast 394 729 5,304 -430 Descending Boston Center
Tue 23:14:16 41.8481 -72.5236 127° Southeast 389 721 4,999 -616 Descending Boston Center
Tue 23:15:16 41.7878 -72.4178 127° Southeast 370 686 4,359 -616 Descending Boston Center
Tue 23:15:45 41.7564 -72.3622 127° Southeast 371 687 4,084 -579 Descending Boston Center
Tue 23:16:16 41.7272 -72.3067 125° Southeast 370 686 3,780 -630 Descending Boston Center
Tue 23:16:46 41.6958 -72.2539 129° Southeast 354 655 3,444 -396 Descending Boston Center
Tue 23:17:16 41.6769 -72.2150 123° Southeast 351 650 3,383 -61 Descending Boston Center
Tue 23:17:46 41.6414 -72.1594 131° Southeast 298 552 3,383  Level Boston Center
Tue 23:18:16 41.6206 -72.1181 124° Southeast 311 576 3,383 -150 Level Boston Center
Tue 23:18:47 41.5911 -72.0708 130° Southeast 306 566 3,231 -298 Descending Boston Center
Tue 23:19:42 41.5450 -71.9936 129° Southeast 282 523 2,957 -366 Descending Boston Center
Tue 23:20:42 41.5008 -71.9189 128° Southeast 248 459 2,530 -408 Descending Boston Center
Tue 23:21:43 41.4631 -71.8472 125° Southeast 242 447 2,134 -286 Descending Boston Center
Tue 23:22:50 41.4378 -71.7728 114° Southeast 185 343 1,920 -302 Descending Boston Center
Tue 23:23:44 41.4497 -71.7200 73° East 180 333 1,524 -382 Descending Boston Center
Tue 23:24:45 41.4642 -71.6672 70° East 158 293 1,189 -363 Descending Boston Center
Tue 23:25:45 41.4889 -71.6225 54° Northeast 151 280 792 -272 Descending Boston Center
Tue 23:26:46 41.5219 -71.5972 30° Northeast 134 248 640 -76 Descending Boston Center
Tue 23:27:46 41.5572 -71.5719 28° Northeast 137 254 640  Level Boston Center
Tue 23:28:47 41.5883 -71.5436 34° Northeast 136 253 640  Level Boston Center

Login

Don't have an account? Register now (free) for customized features, flight alerts, and more!